Time;durP1;ratioP1;P1;durP2;ratioP2;P2;SDS_P1;SDS_P2;PMS_P1;PMS_P2;Temp;Humidity;BMP_temperature;BMP_pressure;BME280_temperature;BME280_humidity;BME280_pressure;Samples;Min_cycle;Max_cycle;Signal;HPM_P1;HPM_P2
2022/06/05 00:01:01;;;;;;;;;;;;;;;15.29;65.04;101015.66;5071738;28;1201;-95
2022/06/05 00:03:28;;;;;;;;;;;;;;;15.28;64.95;101027.56;5071356;28;1269;-95
2022/06/05 00:05:55;;;;;;;;;;;;;;;15.27;64.88;101021.31;5071312;28;1199;-96
2022/06/05 00:08:21;;;;;;;;;;;;;;;15.26;65.03;101021.56;5074769;28;1335;-95
2022/06/05 00:10:48;;;;;;;;;;;;;;;15.25;65.05;101020.72;5057385;28;1177;-95
2022/06/05 00:13:14;;;;;;;;;;;;;;;15.25;64.84;101015.31;5055225;28;1416;-95
2022/06/05 00:15:41;;;;;;;;;;;;;;;15.25;64.84;101022.63;5054603;28;1910;-96
2022/06/05 00:18:07;;;;;;;;;;;;;;;15.22;64.94;101022.03;5049918;28;2263;-96
2022/06/05 00:20:34;;;;;;;;;;;;;;;15.23;64.91;101028.28;5042445;28;2267;-95
2022/06/05 00:23:00;;;;;;;;;;;;;;;15.21;64.84;101022.28;5048964;28;4854;-96
2022/06/05 00:25:27;;;;;;;;;;;;;;;15.20;64.78;101017.91;5069052;28;3979;-96
2022/06/05 00:27:53;;;;;;;;;;;;;;;15.20;64.78;101017.91;5049139;28;2834;-95
2022/06/05 00:30:21;;;;;;;;;;;;;;;15.18;64.75;101017.34;5034447;28;1180;-95
2022/06/05 00:32:48;;;;;;;;;;;;;;;15.17;65.00;101015.66;5049575;28;1295;-96
2022/06/05 00:35:16;;;;;;;;;;;;;;;15.17;64.82;101010.25;5054517;28;1183;-96
2022/06/05 00:37:42;;;;;;;;;;;;;;;15.15;64.81;101018.63;5071387;28;1991;-96
2022/06/05 00:40:09;;;;;;;;;;;;;;;15.14;64.81;101016.16;5048614;28;3092;-96
2022/06/05 00:42:35;;;;;;;;;;;;;;;15.14;64.86;101019.69;5054221;28;1326;-96
2022/06/05 00:45:02;;;;;;;;;;;;;;;15.13;64.73;101017.22;5070901;28;1290;-96
2022/06/05 00:47:28;;;;;;;;;;;;;;;15.12;64.71;101021.84;5054496;28;1371;-96
2022/06/05 00:49:55;;;;;;;;;;;;;;;15.11;64.73;101011.19;5056609;28;1282;-96
2022/06/05 00:52:22;;;;;;;;;;;;;;;15.09;64.83;101018.75;5049035;28;2595;-96
2022/06/05 00:54:48;;;;;;;;;;;;;;;15.08;64.77;101020.63;5056908;28;1239;-96
2022/06/05 00:57:15;;;;;;;;;;;;;;;15.08;64.71;101014.41;5050759;28;1967;-96
2022/06/05 00:59:41;;;;;;;;;;;;;;;15.06;64.67;101014.66;5040582;28;1243;-96
2022/06/05 01:02:08;;;;;;;;;;;;;;;15.05;64.67;101018.41;5071019;28;1267;-96
2022/06/05 01:04:35;;;;;;;;;;;;;;;15.05;64.73;101012.16;5065360;28;1298;-96
2022/06/05 01:07:01;;;;;;;;;;;;;;;15.04;64.66;101018.66;5064894;28;1218;-96
2022/06/05 01:09:28;;;;;;;;;;;;;;;15.03;64.68;101012.41;5051061;28;1243;-96
2022/06/05 01:11:54;;;;;;;;;;;;;;;15.02;64.51;101013.47;5061367;28;1299;-96
2022/06/05 01:14:21;;;;;;;;;;;;;;;15.01;64.51;101011.81;5071010;28;1298;-96
2022/06/05 01:16:47;;;;;;;;;;;;;;;15.00;64.62;101010.19;5065636;28;2320;-96
2022/06/05 01:19:14;;;;;;;;;;;;;;;14.99;64.51;101008.50;5053697;28;1196;-96
2022/06/05 01:21:41;;;;;;;;;;;;;;;14.98;64.63;101004.16;5054256;28;1184;-96
2022/06/05 01:24:07;;;;;;;;;;;;;;;14.97;64.61;101006.06;5070507;28;1286;-96
2022/06/05 01:26:34;;;;;;;;;;;;;;;14.95;64.45;101010.88;5070880;28;1304;-96
2022/06/05 01:29:00;;;;;;;;;;;;;;;14.94;64.46;101014.66;5062781;28;1398;-96
2022/06/05 01:31:27;;;;;;;;;;;;;;;14.93;64.48;101012.16;5070520;28;1179;-96
2022/06/05 01:33:53;;;;;;;;;;;;;;;14.92;64.44;101015.97;5070493;28;1354;-96
2022/06/05 01:36:20;;;;;;;;;;;;;;;14.92;64.40;101013.25;5073395;28;1979;-96
2022/06/05 01:38:47;;;;;;;;;;;;;;;14.89;64.45;101011.00;5057534;28;1379;-96
2022/06/05 01:41:13;;;;;;;;;;;;;;;14.89;64.41;101014.53;5057184;28;1343;-96
2022/06/05 01:43:40;;;;;;;;;;;;;;;14.88;64.46;101018.31;5073859;28;1303;-96
2022/06/05 01:46:07;;;;;;;;;;;;;;;14.87;64.45;101013.13;5057450;28;1186;-96
2022/06/05 01:48:34;;;;;;;;;;;;;;;14.87;64.39;101021.25;5057465;28;1291;-96
2022/06/05 01:51:00;;;;;;;;;;;;;;;14.85;64.44;101018.78;5057595;28;1317;-96
2022/06/05 01:53:27;;;;;;;;;;;;;;;14.84;64.31;101014.41;5073569;28;1256;-96
2022/06/05 01:55:53;;;;;;;;;;;;;;;14.81;64.29;101009.47;5057455;28;1914;-96
2022/06/05 01:58:19;;;;;;;;;;;;;;;14.82;64.30;101010.28;5053957;28;1279;-96
2022/06/05 02:00:46;;;;;;;;;;;;;;;14.80;64.32;101010.53;5049011;28;1307;-96
2022/06/05 02:03:13;;;;;;;;;;;;;;;14.79;64.27;101011.59;5048589;28;1213;-96
2022/06/05 02:05:39;;;;;;;;;;;;;;;14.77;64.41;101006.41;5073604;28;1296;-96
2022/06/05 02:08:05;;;;;;;;;;;;;;;14.75;64.40;101011.25;5077262;28;1326;-96
2022/06/05 02:10:32;;;;;;;;;;;;;;;14.74;64.22;101016.91;5065128;28;1567;-96
2022/06/05 02:12:59;;;;;;;;;;;;;;;14.73;64.15;101010.63;5073572;28;1657;-96
2022/06/05 02:15:27;;;;;;;;;;;;;;;14.73;64.34;101021.47;5048077;28;1935;-96
2022/06/05 02:17:54;;;;;;;;;;;;;;;14.71;64.26;101020.09;5072641;28;1898;-96
2022/06/05 02:20:21;;;;;;;;;;;;;;;14.69;64.27;101020.31;5044659;28;1792;-95
2022/06/05 02:22:47;;;;;;;;;;;;;;;14.69;64.27;101019.50;5053532;28;1578;-96
2022/06/05 02:25:14;;;;;;;;;;;;;;;14.67;64.25;101019.72;5036659;28;1182;-96
2022/06/05 02:27:40;;;;;;;;;;;;;;;14.66;64.24;101012.66;5045186;28;1837;-96
2022/06/05 02:30:07;;;;;;;;;;;;;;;14.65;64.11;101015.63;5055933;28;1763;-96
2022/06/05 02:32:33;;;;;;;;;;;;;;;14.63;64.16;101012.31;5055573;28;1807;-96
2022/06/05 02:35:00;;;;;;;;;;;;;;;14.62;64.23;101010.63;5049013;28;1350;-96
2022/06/05 02:37:27;;;;;;;;;;;;;;;14.61;64.21;101014.41;5069496;28;1975;-96
2022/06/05 02:39:53;;;;;;;;;;;;;;;14.60;64.13;101012.78;5054007;28;2559;-96
2022/06/05 02:42:20;;;;;;;;;;;;;;;14.59;64.24;101014.66;5051970;28;1565;-96
2022/06/05 02:44:46;;;;;;;;;;;;;;;14.57;64.12;101024.91;5036680;28;1346;-96
2022/06/05 02:47:13;;;;;;;;;;;;;;;14.57;64.04;101018.66;5045522;28;1611;-96
2022/06/05 02:49:40;;;;;;;;;;;;;;;14.55;64.26;101024.31;5036052;28;1179;-96
2022/06/05 02:52:06;;;;;;;;;;;;;;;14.53;64.05;101010.19;5050640;28;4707;-96
2022/06/05 02:54:33;;;;;;;;;;;;;;;14.50;64.14;101019.56;5042633;28;1755;-96
2022/06/05 02:56:59;;;;;;;;;;;;;;;14.51;64.16;101025.81;5068020;28;1906;-96
2022/06/05 02:59:26;;;;;;;;;;;;;;;14.48;64.04;101021.69;5069634;28;1899;-96
2022/06/05 03:04:37;;;;;;;;;;;;;;;14.46;64.24;101026.50;5063594;28;1835;-96
2022/06/05 03:07:03;;;;;;;;;;;;;;;14.46;63.98;101022.97;5056179;28;1481;-96
2022/06/05 03:09:30;;;;;;;;;;;;;;;14.44;64.09;101019.66;5039403;28;1216;-96
2022/06/05 03:11:56;;;;;;;;;;;;;;;14.42;64.12;101014.50;5057086;28;2069;-95
2022/06/05 03:14:24;;;;;;;;;;;;;;;14.42;64.06;101010.97;5067083;28;1259;-96
2022/06/05 03:16:51;;;;;;;;;;;;;;;14.41;64.03;101009.28;5063689;28;1918;-96
2022/06/05 03:19:17;;;;;;;;;;;;;;;14.38;64.03;101010.59;5066775;28;1219;-96
2022/06/05 03:21:44;;;;;;;;;;;;;;;14.39;63.98;101011.44;5074583;28;1296;-96
2022/06/05 03:24:10;;;;;;;;;;;;;;;14.37;63.79;101011.66;5054156;28;2667;-96
2022/06/05 03:26:37;;;;;;;;;;;;;;;14.36;63.95;101017.31;5054902;28;2416;-96
2022/06/05 03:29:03;;;;;;;;;;;;;;;14.34;64.13;101022.97;5075453;28;2016;-96
2022/06/05 03:31:30;;;;;;;;;;;;;;;14.34;63.94;101020.25;5058919;28;1190;-96
2022/06/05 03:33:57;;;;;;;;;;;;;;;14.33;63.98;101015.91;5058917;28;1270;-96
2022/06/05 03:36:24;;;;;;;;;;;;;;;14.31;63.98;101010.69;5058746;28;1986;-96
2022/06/05 03:38:50;;;;;;;;;;;;;;;14.30;63.85;101009.06;5058462;28;1187;-96
2022/06/05 03:41:17;;;;;;;;;;;;;;;14.29;64.06;101018.25;5058576;28;1346;-96
2022/06/05 03:43:43;;;;;;;;;;;;;;;14.28;64.00;101022.00;5058891;28;1274;-96
2022/06/05 03:46:10;;;;;;;;;;;;;;;14.27;63.77;101023.06;5058660;28;1296;-96
2022/06/05 03:48:36;;;;;;;;;;;;;;;14.25;63.84;101030.59;5062394;28;2839;-96
2022/06/05 03:51:03;;;;;;;;;;;;;;;14.25;63.93;101032.50;5038630;28;1330;-96
2022/06/05 03:53:29;;;;;;;;;;;;;;;14.25;63.88;101032.50;5038224;28;1307;-96
2022/06/05 03:55:56;;;;;;;;;;;;;;;14.25;63.75;101033.31;5046844;28;1188;-96
2022/06/05 03:58:22;;;;;;;;;;;;;;;14.23;63.73;101034.59;5057971;28;1979;-96
2022/06/05 04:00:50;;;;;;;;;;;;;;;14.22;63.77;101033.78;5058225;28;1256;-96
2022/06/05 04:03:16;;;;;;;;;;;;;;;14.20;63.87;101030.47;5058064;28;1325;-96
2022/06/05 04:05:43;;;;;;;;;;;;;;;14.20;63.78;101035.88;5074716;28;1281;-96
2022/06/05 04:08:09;;;;;;;;;;;;;;;14.18;63.82;101038.03;5074806;28;1314;-96
2022/06/05 04:10:36;;;;;;;;;;;;;;;14.18;63.71;101043.44;5058239;28;1194;-96
2022/06/05 04:13:02;;;;;;;;;;;;;;;14.17;nan;101041.75;5061938;28;1289;-95
2022/06/05 04:15:29;;;;;;;;;;;;;;;14.16;63.70;101040.13;5052408;28;746;-95
2022/06/05 04:17:56;;;;;;;;;;;;;;;14.14;63.71;101039.53;5060276;28;1922;-95
2022/06/05 04:20:22;;;;;;;;;;;;;;;14.15;63.62;101040.34;5057742;28;1258;-95
2022/06/05 04:22:49;;;;;;;;;;;;;;;14.13;63.67;101037.06;5067978;28;1307;-95
2022/06/05 04:25:15;;;;;;;;;;;;;;;14.11;63.54;101034.56;5067753;28;1172;-95
2022/06/05 04:27:42;;;;;;;;;;;;;;;14.11;63.55;101047.28;5057805;28;1318;-95
2022/06/05 04:30:09;;;;;;;;;;;;;;;14.08;63.57;101041.28;5057827;28;1355;-95
2022/06/05 04:32:35;;;;;;;;;;;;;;;14.08;63.78;101051.28;5057948;28;1259;-95
2022/06/05 04:35:02;;;;;;;;;;;;;;;14.07;63.71;101041.50;5057750;28;1301;-96
2022/06/05 04:37:28;;;;;;;;;;;;;;;14.06;63.74;101042.59;5074570;28;1968;-95
2022/06/05 04:39:55;;;;;;;;;;;;;;;14.03;63.61;101049.28;5074444;28;1459;-95
2022/06/05 04:42:21;;;;;;;;;;;;;;;14.02;63.54;101044.06;5073734;28;1290;-95
2022/06/05 04:44:48;;;;;;;;;;;;;;;14.02;63.58;101046.78;5075349;28;1179;-96
2022/06/05 04:47:14;;;;;;;;;;;;;;;14.01;63.73;101043.25;5074164;28;1436;-95
2022/06/05 04:49:41;;;;;;;;;;;;;;;14.01;63.75;101045.97;5057303;28;1356;-95
2022/06/05 04:52:07;;;;;;;;;;;;;;;13.99;63.58;101048.06;5057292;28;1362;-95
2022/06/05 04:54:34;;;;;;;;;;;;;;;13.98;63.49;101046.44;5057415;28;1302;-95
2022/06/05 04:57:01;;;;;;;;;;;;;;;13.97;63.57;101044.78;5057040;28;2693;-95
2022/06/05 04:59:27;;;;;;;;;;;;;;;13.96;63.53;101045.81;5057413;28;1345;-95
2022/06/05 05:01:54;;;;;;;;;;;;;;;13.96;63.55;101045.00;5057320;28;1223;-95
2022/06/05 05:04:20;;;;;;;;;;;;;;;13.95;63.57;101055.00;5073980;28;1271;-95
2022/06/05 05:06:47;;;;;;;;;;;;;;;13.94;63.63;101050.66;5057301;28;1255;-95
2022/06/05 05:09:13;;;;;;;;;;;;;;;13.93;63.52;101051.69;5058660;28;1307;-95
2022/06/05 05:11:40;;;;;;;;;;;;;;;13.92;63.58;101049.25;5061569;28;1328;-95
2022/06/05 05:14:06;;;;;;;;;;;;;;;13.92;63.57;101052.75;5060545;28;1176;-95
2022/06/05 05:16:33;;;;;;;;;;;;;;;13.91;63.40;101059.22;5089166;28;1024;-95
2022/06/05 05:18:59;;;;;;;;;;;;;;;13.91;63.50;101052.97;5067698;28;1878;-95
2022/06/05 05:21:26;;;;;;;;;;;;;;;13.92;63.41;101050.06;5080233;28;1201;-95
2022/06/05 05:23:52;;;;;;;;;;;;;;;13.91;63.50;101056.50;5056314;28;4201;-95
2022/06/05 05:26:19;;;;;;;;;;;;;;;13.90;63.34;101045.94;5073152;28;2240;-95
2022/06/05 05:28:46;;;;;;;;;;;;;;;13.89;63.46;101050.53;5069647;28;3709;-95
2022/06/05 05:31:12;;;;;;;;;;;;;;;13.90;63.33;101045.94;5074879;28;1235;-95
2022/06/05 05:33:39;;;;;;;;;;;;;;;13.88;63.45;101048.84;5081174;28;1223;-96
2022/06/05 05:36:06;;;;;;;;;;;;;;;13.88;63.43;101045.31;5064270;28;1250;-95
2022/06/05 05:38:33;;;;;;;;;;;;;;;13.88;63.23;101048.03;5067274;28;1909;-95
2022/06/05 05:43:44;;;;;;;;;;;;;;;13.86;63.31;101045.56;5060998;28;1218;-95
2022/06/05 05:46:10;;;;;;;;;;;;;;;13.85;63.28;101046.59;5077634;28;1195;-95
2022/06/05 05:48:36;;;;;;;;;;;;;;;13.84;63.39;101037.66;5053170;28;1227;-95
2022/06/05 05:51:03;;;;;;;;;;;;;;;13.84;63.14;101043.06;5040621;28;1321;-94
2022/06/05 05:53:30;;;;;;;;;;;;;;;13.83;63.23;101036.00;5048303;28;2525;-95
2022/06/05 05:55:56;;;;;;;;;;;;;;;13.83;63.12;101036.00;5045874;28;1199;-95
2022/06/05 05:58:22;;;;;;;;;;;;;;;13.82;63.28;101026.25;5040731;28;2033;-95
2022/06/05 06:00:49;;;;;;;;;;;;;;;13.83;63.16;101032.50;5057128;28;1360;-95
2022/06/05 06:03:15;;;;;;;;;;;;;;;13.81;63.27;101040.81;5057068;28;1206;-95
2022/06/05 06:05:42;;;;;;;;;;;;;;;13.81;63.16;101043.53;5067814;28;3516;-96
2022/06/05 06:08:08;;;;;;;;;;;;;;;13.81;63.22;101046.25;5080480;28;1195;-95
2022/06/05 06:10:35;;;;;;;;;;;;;;;13.80;63.10;101039.19;5067391;28;1382;-95
2022/06/05 06:13:02;;;;;;;;;;;;;;;13.81;63.04;101034.59;5062365;28;1285;-95
2022/06/05 06:15:28;;;;;;;;;;;;;;;13.80;63.06;101035.66;5040349;28;1298;-95
2022/06/05 06:17:55;;;;;;;;;;;;;;;13.81;63.04;101042.72;5053296;28;1939;-94
2022/06/05 06:20:21;;;;;;;;;;;;;;;13.79;63.02;101031.28;5081118;28;1227;-95
2022/06/05 06:22:48;;;;;;;;;;;;;;;13.79;63.13;101042.94;5080086;28;1218;-95
2022/06/05 06:25:14;;;;;;;;;;;;;;;13.79;63.28;101040.22;5066389;28;2262;-94
2022/06/05 06:27:41;;;;;;;;;;;;;;;13.79;62.92;101037.50;5056790;28;2357;-94
2022/06/05 06:30:07;;;;;;;;;;;;;;;13.79;62.97;101034.81;5075825;28;1158;-94
2022/06/05 06:32:35;;;;;;;;;;;;;;;13.77;62.92;101034.22;5060302;28;1224;-94
2022/06/05 06:35:01;;;;;;;;;;;;;;;13.77;62.92;101036.94;5059955;28;1216;-95
2022/06/05 06:37:28;;;;;;;;;;;;;;;13.77;62.98;101038.81;5077742;28;1906;-94
2022/06/05 06:39:54;;;;;;;;;;;;;;;13.76;62.85;101040.69;5060572;28;1191;-95
2022/06/05 06:42:21;;;;;;;;;;;;;;;13.76;62.99;101040.69;5070140;28;1435;-94
2022/06/05 06:44:48;;;;;;;;;;;;;;;13.76;62.92;101042.56;5059628;28;1417;-94
2022/06/05 06:47:14;;;;;;;;;;;;;;;13.76;63.03;101047.97;5046638;28;1294;-94
2022/06/05 06:49:40;;;;;;;;;;;;;;;13.77;62.94;101049.66;5056352;28;1276;-94
2022/06/05 06:52:07;;;;;;;;;;;;;;;13.77;62.93;101049.66;5056024;28;1372;-94
2022/06/05 06:54:33;;;;;;;;;;;;;;;13.76;62.72;101048.81;5073170;28;1270;-94
2022/06/05 06:57:00;;;;;;;;;;;;;;;13.77;62.72;101044.22;5066150;28;1333;-94
2022/06/05 06:59:27;;;;;;;;;;;;;;;13.76;62.82;101047.97;5076259;28;1992;-94
2022/06/05 07:01:54;;;;;;;;;;;;;;;13.75;62.79;101049.03;5075835;28;1188;-94
2022/06/05 07:04:21;;;;;;;;;;;;;;;13.75;62.79;101057.16;5059042;28;1219;-94
2022/06/05 07:06:48;;;;;;;;;;;;;;;13.75;62.83;101059.88;5059197;28;1253;-95
2022/06/05 07:09:14;;;;;;;;;;;;;;;13.76;62.69;101061.50;5075715;28;1187;-96
2022/06/05 07:11:41;;;;;;;;;;;;;;;13.77;62.87;101063.19;5075586;28;1192;-94
2022/06/05 07:14:09;;;;;;;;;;;;;;;13.76;62.84;101062.34;5056580;28;3533;-94
2022/06/05 07:16:35;;;;;;;;;;;;;;;13.76;62.68;101054.22;5058895;28;1144;-96
2022/06/05 07:19:01;;;;;;;;;;;;;;;13.76;62.64;101050.69;5079648;28;1981;-94
2022/06/05 07:21:28;;;;;;;;;;;;;;;13.75;62.77;101047.16;5058768;28;1199;-94
2022/06/05 07:23:55;;;;;;;;;;;;;;;13.77;62.57;101050.47;5064587;28;1445;-95
2022/06/05 07:26:21;;;;;;;;;;;;;;;13.79;62.74;101052.94;5075748;28;1207;-94
2022/06/05 07:28:48;;;;;;;;;;;;;;;13.78;62.59;101044.00;5075531;28;1175;-94
2022/06/05 07:31:14;;;;;;;;;;;;;;;13.79;62.56;101050.22;5075271;28;1194;-94
2022/06/05 07:33:41;;;;;;;;;;;;;;;13.80;62.42;101052.72;5074439;28;1297;-93
2022/06/05 07:36:08;;;;;;;;;;;;;;;13.81;62.54;101050.84;5058723;28;1185;-94
2022/06/05 07:38:34;;;;;;;;;;;;;;;13.81;62.34;101050.84;5058545;28;1914;-95
2022/06/05 07:41:01;;;;;;;;;;;;;;;13.82;62.55;101066.00;5058703;28;1210;-95
2022/06/05 07:43:27;;;;;;;;;;;;;;;13.81;62.38;101057.06;5058570;28;1212;-96
2022/06/05 07:45:54;;;;;;;;;;;;;;;13.82;62.40;101055.19;5045231;28;1338;-95
2022/06/05 07:48:20;;;;;;;;;;;;;;;13.84;62.28;101055.78;5055150;28;1277;-96
2022/06/05 07:56:15;;;;;;;;;;;;;;;13.85;62.36;101054.72;5041457;28;1274;-95
2022/06/05 07:58:42;;;;;;;;;;;;;;;13.84;62.19;101051.19;5042633;28;1919;-95
2022/06/05 08:01:08;;;;;;;;;;;;;;;13.85;62.22;101043.91;5062207;28;2625;-95
2022/06/05 08:03:35;;;;;;;;;;;;;;;13.85;62.17;101041.19;5071516;28;1179;-95
2022/06/05 08:06:01;;;;;;;;;;;;;;;13.87;62.13;101044.50;5054612;28;1188;-95
2022/06/05 08:08:28;;;;;;;;;;;;;;;13.86;62.23;101045.56;5069167;28;1316;-95
2022/06/05 08:10:55;;;;;;;;;;;;;;;13.86;62.22;101045.56;5074332;28;1771;-95
2022/06/05 08:13:22;;;;;;;;;;;;;;;13.87;62.17;101047.22;5056047;28;1271;-94
2022/06/05 08:15:48;;;;;;;;;;;;;;;13.89;62.19;101055.13;5075032;28;1217;-94
2022/06/05 08:18:15;;;;;;;;;;;;;;;13.88;62.34;101051.56;5073992;28;4517;-95
2022/06/05 08:20:42;;;;;;;;;;;;;;;13.89;62.46;101047.00;5058141;28;1189;-92
2022/06/05 08:23:08;;;;;;;;;;;;;;;13.90;62.38;101049.44;5053965;28;1705;-94
2022/06/05 08:25:35;;;;;;;;;;;;;;;13.88;62.41;101043.44;5037773;28;1259;-93
2022/06/05 08:28:02;;;;;;;;;;;;;;;13.89;62.28;101047.81;5054914;28;1211;-94
2022/06/05 08:30:28;;;;;;;;;;;;;;;13.89;62.45;101042.41;5074886;28;1953;-94
2022/06/05 08:32:55;;;;;;;;;;;;;;;13.89;62.45;101045.09;5053136;28;2657;-93
2022/06/05 08:35:21;;;;;;;;;;;;;;;13.89;62.43;101045.09;5055978;28;1601;-93
2022/06/05 08:43:16;;;;;;;;;;;;;;;13.92;62.21;101051.94;5072120;28;2158;-95
2022/06/05 08:45:43;;;;;;;;;;;;;;;13.93;62.48;101057.13;5049849;28;1849;-94
2022/06/05 08:48:09;;;;;;;;;;;;;;;13.93;62.58;101051.69;5046811;28;1420;-93
2022/06/05 08:50:36;;;;;;;;;;;;;;;13.94;62.51;101050.66;5054086;28;1211;-93
2022/06/05 08:53:03;;;;;;;;;;;;;;;13.94;62.61;101052.53;5078762;28;1565;-93
2022/06/05 08:55:31;;;;;;;;;;;;;;;13.94;62.48;101053.38;5051151;28;1472;-93
2022/06/05 08:57:58;;;;;;;;;;;;;;;13.94;62.45;101047.97;5053480;28;1909;-94
2022/06/05 09:00:24;;;;;;;;;;;;;;;13.94;62.39;101050.66;5055655;28;1271;-93
2022/06/05 09:02:51;;;;;;;;;;;;;;;13.95;62.39;101055.00;5074731;28;1031;-94
2022/06/05 09:05:18;;;;;;;;;;;;;;;13.95;62.45;101055.00;5073974;28;1195;-94
2022/06/05 09:07:44;;;;;;;;;;;;;;;13.96;62.31;101050.41;5090967;28;1253;-95
2022/06/05 09:10:13;;;;;;;;;;;;;;;13.95;62.43;101052.31;5091151;28;1189;-93
2022/06/05 09:12:39;;;;;;;;;;;;;;;13.95;62.46;101046.91;5063247;28;1683;-93
2022/06/05 09:15:06;;;;;;;;;;;;;;;13.98;62.29;101048.31;5053823;28;1309;-94
2022/06/05 09:17:32;;;;;;;;;;;;;;;13.96;62.22;101051.25;5060583;28;1294;-94
2022/06/05 09:19:59;;;;;;;;;;;;;;;13.99;62.36;101055.38;5056742;28;1917;-94
2022/06/05 09:22:25;;;;;;;;;;;;;;;13.98;62.44;101051.84;5056973;28;1342;-94
2022/06/05 09:24:52;;;;;;;;;;;;;;;14.00;62.47;101048.88;5057234;28;1316;-93
2022/06/05 09:27:18;;;;;;;;;;;;;;;13.99;62.41;101048.06;5074400;28;1248;-94
2022/06/05 09:29:45;;;;;;;;;;;;;;;14.00;62.53;101049.75;5074824;28;1237;-94
2022/06/05 09:32:12;;;;;;;;;;;;;;;13.99;62.67;101056.19;5074041;28;1383;-93
2022/06/05 09:34:38;;;;;;;;;;;;;;;14.00;62.60;101057.88;5073887;28;1187;-94
2022/06/05 09:37:05;;;;;;;;;;;;;;;14.01;62.57;101056.81;5047277;28;2105;-94
2022/06/05 09:39:31;;;;;;;;;;;;;;;14.02;62.48;101061.16;5061384;28;2262;-94
2022/06/05 09:41:58;;;;;;;;;;;;;;;14.02;62.59;101054.91;5068587;28;1414;-94
2022/06/05 09:44:25;;;;;;;;;;;;;;;14.03;62.58;101057.41;5057376;28;1167;-94
2022/06/05 09:46:52;;;;;;;;;;;;;;;14.03;62.59;101056.56;5055900;28;1392;-94
2022/06/05 09:49:18;;;;;;;;;;;;;;;14.04;62.76;101052.81;5056354;28;1791;-94
2022/06/05 09:51:45;;;;;;;;;;;;;;;14.04;62.86;101052.81;5055932;28;2537;-94
2022/06/05 09:54:11;;;;;;;;;;;;;;;14.06;62.96;101051.53;5056518;28;1306;-94
2022/06/05 09:58:24;;;;;;;;;;;;;;;14.05;62.99;101052.56;5075290;28;1246;-94
2022/06/05 09:59:24;;;;;;;;;;;;;;;14.05;62.86;101038.19;5056080;28;1922;-94
2022/06/05 10:01:50;;;;;;;;;;;;;;;14.06;62.90;101050.72;5075258;28;1297;-94
2022/06/05 10:04:17;;;;;;;;;;;;;;;14.06;62.71;101040.69;5060798;28;1229;-94
2022/06/05 10:06:43;;;;;;;;;;;;;;;14.08;62.96;101041.28;5060233;28;1458;-94
2022/06/05 10:09:10;;;;;;;;;;;;;;;14.08;62.93;101033.13;5060131;28;1211;-94
2022/06/05 10:11:36;;;;;;;;;;;;;;;14.10;63.11;101035.63;5060208;28;1198;-95
2022/06/05 10:14:03;;;;;;;;;;;;;;;14.10;62.96;101024.81;5066253;28;1304;-94
2022/06/05 10:16:29;;;;;;;;;;;;;;;14.11;63.15;101022.91;5059737;28;2121;-94
2022/06/05 10:18:56;;;;;;;;;;;;;;;14.12;63.00;101020.00;5059439;28;1929;-94
2022/06/05 10:21:24;;;;;;;;;;;;;;;14.13;63.14;101020.81;5059988;28;1188;-94
2022/06/05 10:23:50;;;;;;;;;;;;;;;14.13;63.25;101020.81;5046932;28;4826;-94
2022/06/05 10:26:17;;;;;;;;;;;;;;;14.14;63.14;101012.44;5043202;28;1948;-95
2022/06/05 10:28:43;;;;;;;;;;;;;;;14.16;62.95;101017.63;5059430;28;2660;-94
2022/06/05 10:31:10;;;;;;;;;;;;;;;14.16;63.15;101010.31;5056890;28;1507;-94
2022/06/05 10:33:38;;;;;;;;;;;;;;;14.17;63.12;101006.56;5060129;28;1309;-94
2022/06/05 10:36:04;;;;;;;;;;;;;;;14.19;63.16;101011.75;5043339;28;1312;-94
2022/06/05 10:38:31;;;;;;;;;;;;;;;14.20;63.35;101018.81;5056872;28;1963;-95
2022/06/05 10:40:58;;;;;;;;;;;;;;;14.20;63.29;101019.63;5058330;28;2633;-95
2022/06/05 10:43:24;;;;;;;;;;;;;;;14.22;63.36;101014.81;5043059;28;1512;-96
2022/06/05 10:45:51;;;;;;;;;;;;;;;14.23;63.42;101012.91;5058741;28;1506;-96
2022/06/05 10:48:17;;;;;;;;;;;;;;;14.23;63.30;101011.03;5059564;28;1523;-95
2022/06/05 10:50:43;;;;;;;;;;;;;;;14.23;63.24;101011.03;5076013;28;1242;-95
2022/06/05 10:53:10;;;;;;;;;;;;;;;14.25;63.19;101008.09;5045998;28;2415;-95
2022/06/05 10:55:37;;;;;;;;;;;;;;;14.26;63.44;101010.56;5058056;28;1583;-95
2022/06/05 10:58:03;;;;;;;;;;;;;;;14.28;63.43;101008.47;5056138;28;1187;-95
2022/06/05 11:00:30;;;;;;;;;;;;;;;14.29;63.52;100996.59;5060361;28;3536;-95
2022/06/05 11:02:56;;;;;;;;;;;;;;;14.30;63.58;100997.41;5052469;28;1712;-96
2022/06/05 11:05:24;;;;;;;;;;;;;;;14.30;63.51;101003.66;5058816;28;1457;-96
2022/06/05 11:07:50;;;;;;;;;;;;;;;14.33;63.52;100999.66;5058134;28;1389;-96
2022/06/05 11:10:17;;;;;;;;;;;;;;;14.35;63.50;100999.41;5060329;28;1665;-95
2022/06/05 11:15:27;;;;;;;;;;;;;;;14.37;63.62;100989.16;5058059;28;1622;-96
2022/06/05 11:17:54;;;;;;;;;;;;;;;14.37;63.61;100986.44;5038880;28;1734;-96
2022/06/05 11:20:21;;;;;;;;;;;;;;;14.39;63.65;100989.75;5049134;28;1979;-96
2022/06/05 11:22:47;;;;;;;;;;;;;;;14.40;63.60;100994.09;5058794;28;1595;-96
2022/06/05 11:25:13;;;;;;;;;;;;;;;14.41;63.64;100988.47;5059069;28;1314;-96
2022/06/05 11:27:40;;;;;;;;;;;;;;;14.42;63.69;100989.28;5059097;28;1431;-96
2022/06/05 11:30:16;;;;;;;;;;;;;;;;;;;;;
2022/06/05 11:35:37;;;;;;;;;;;;;;;14.45;63.53;100984.22;5059663;28;1216;-96
2022/06/05 11:38:03;;;;;;;;;;;;;;;14.46;63.61;100991.28;5059757;28;1393;-96
2022/06/05 11:40:30;;;;;;;;;;;;;;;14.48;63.68;100985.63;5075401;28;1914;-96
2022/06/05 11:42:56;;;;;;;;;;;;;;;14.49;63.83;100979.97;5061997;28;1345;-96
2022/06/05 11:45:23;;;;;;;;;;;;;;;14.51;63.75;100982.47;5053753;28;1535;-96
2022/06/05 11:47:50;;;;;;;;;;;;;;;14.52;63.69;100984.94;5062056;28;1298;-96
2022/06/05 11:50:18;;;;;;;;;;;;;;;14.52;63.80;100979.53;5064942;28;1725;-96
2022/06/05 11:52:44;;;;;;;;;;;;;;;14.56;63.77;100981.75;5057261;28;4781;-96
2022/06/05 11:55:11;;;;;;;;;;;;;;;14.56;63.83;100976.34;5055514;28;2479;-96
2022/06/05 11:57:38;;;;;;;;;;;;;;;14.58;63.88;100975.06;5041681;28;1271;-96
2022/06/05 12:00:05;;;;;;;;;;;;;;;14.60;63.88;100975.66;5038266;28;1913;-96
2022/06/05 12:02:31;;;;;;;;;;;;;;;14.63;63.98;100977.06;5039044;28;2085;-96
2022/06/05 12:04:58;;;;;;;;;;;;;;;14.63;63.94;100967.03;5070465;28;2055;-96
2022/06/05 12:07:25;;;;;;;;;;;;;;;14.65;64.12;100961.41;5056785;28;1401;-96
2022/06/05 12:09:53;;;;;;;;;;;;;;;14.66;64.05;100963.03;5058034;28;1183;-96
2022/06/05 12:12:20;;;;;;;;;;;;;;;14.67;64.14;100964.69;5054200;28;2063;-96
2022/06/05 12:14:46;;;;;;;;;;;;;;;14.68;64.06;100952.78;5054995;28;1216;-96
2022/06/05 12:17:13;;;;;;;;;;;;;;;14.69;64.15;100960.69;5072207;28;1213;-96
2022/06/05 12:19:39;;;;;;;;;;;;;;;14.70;64.11;100961.50;5057626;28;1902;-96
2022/06/05 12:22:06;;;;;;;;;;;;;;;14.73;64.13;100950.16;5051547;28;1371;-96
2022/06/05 12:24:33;;;;;;;;;;;;;;;14.74;64.25;100952.66;5074526;28;1613;-96
2022/06/05 12:26:59;;;;;;;;;;;;;;;14.76;64.22;100958.69;5058225;28;2075;-96
2022/06/05 12:29:27;;;;;;;;;;;;;;;14.78;64.21;100942.16;5055074;28;1376;-95
2022/06/05 12:31:53;;;;;;;;;;;;;;;14.78;64.30;100944.88;5054622;28;1613;-96
2022/06/05 12:34:20;;;;;;;;;;;;;;;14.81;64.38;100943.56;5054606;28;1334;-96
2022/06/05 12:36:46;;;;;;;;;;;;;;;14.82;64.38;100934.38;5039486;28;1923;-96
2022/06/05 12:39:13;;;;;;;;;;;;;;;14.85;64.44;100928.47;5057614;28;1969;-96
2022/06/05 12:41:39;;;;;;;;;;;;;;;14.88;64.33;100928.00;5056045;28;2250;-96
2022/06/05 12:44:06;;;;;;;;;;;;;;;14.89;64.34;100930.47;5052784;28;2401;-96
2022/06/05 12:46:32;;;;;;;;;;;;;;;14.90;64.42;100929.41;5061887;28;1556;-96
2022/06/05 12:48:59;;;;;;;;;;;;;;;14.91;64.48;100922.94;5074057;28;1242;-96
2022/06/05 12:51:25;;;;;;;;;;;;;;;14.93;64.55;100926.22;5053782;28;2166;-96
2022/06/05 12:53:52;;;;;;;;;;;;;;;14.95;64.49;100920.56;5057308;28;1193;-96
2022/06/05 12:56:18;;;;;;;;;;;;;;;14.97;64.56;100915.69;5055186;28;2063;-95
2022/06/05 12:58:58;;;;;;;;;;;;;;;14.99;64.51;100914.41;5051468;28;2128;-96
2022/06/05 13:01:24;;;;;;;;;;;;;;;15.01;64.55;100907.94;5051551;28;2604;-95
2022/06/05 13:03:51;;;;;;;;;;;;;;;15.03;64.61;100908.50;5053335;28;1397;-96
2022/06/05 13:06:17;;;;;;;;;;;;;;;15.04;64.57;100915.59;5057767;28;1378;-96